sensor_id;sensor_type;location;lat;lon;timestamp;pressure;altitude;pressure_sealevel;temperature;humidity
3096;BME280;1558;42.700;23.360;2022-12-29T00:02:16;96204.75;;;4.02;100.00
3096;BME280;1558;42.700;23.360;2022-12-29T00:04:44;96254.97;;;4.25;100.00
3096;BME280;1558;42.700;23.360;2022-12-29T00:07:12;96260.56;;;4.34;100.00
3096;BME280;1558;42.700;23.360;2022-12-29T00:09:41;96255.22;;;4.34;100.00
3096;BME280;1558;42.700;23.360;2022-12-29T00:12:10;96263.50;;;4.32;100.00
3096;BME280;1558;42.700;23.360;2022-12-29T00:14:38;96261.34;;;4.34;100.00
3096;BME280;1558;42.700;23.360;2022-12-29T00:17:23;96248.00;;;4.29;100.00
3096;BME280;1558;42.700;23.360;2022-12-29T00:19:51;96271.22;;;4.44;100.00
3096;BME280;1558;42.700;23.360;2022-12-29T00:22:36;96271.75;;;4.46;100.00
3096;BME280;1558;42.700;23.360;2022-12-29T00:25:23;96270.16;;;4.45;100.00
3096;BME280;1558;42.700;23.360;2022-12-29T00:28:09;96269.63;;;4.43;100.00
3096;BME280;1558;42.700;23.360;2022-12-29T00:30:58;96278.72;;;4.42;100.00
3096;BME280;1558;42.700;23.360;2022-12-29T00:33:44;96278.97;;;4.45;100.00
3096;BME280;1558;42.700;23.360;2022-12-29T00:36:32;96270.69;;;4.37;100.00
3096;BME280;1558;42.700;23.360;2022-12-29T00:39:05;96279.25;;;4.49;100.00
3096;BME280;1558;42.700;23.360;2022-12-29T00:41:53;96276.56;;;4.54;100.00
3096;BME280;1558;42.700;23.360;2022-12-29T00:44:39;96284.84;;;4.57;100.00
3096;BME280;1558;42.700;23.360;2022-12-29T00:47:07;96287.22;;;4.64;100.00
3096;BME280;1558;42.700;23.360;2022-12-29T00:49:35;96285.09;;;4.61;100.00
3096;BME280;1558;42.700;23.360;2022-12-29T00:52:04;96286.69;;;4.57;100.00
3096;BME280;1558;42.700;23.360;2022-12-29T00:54:34;96288.31;;;4.58;100.00
3096;BME280;1558;42.700;23.360;2022-12-29T00:57:04;96288.84;;;4.55;100.00
3096;BME280;1558;42.700;23.360;2022-12-29T00:59:34;96284.31;;;4.60;100.00
3096;BME280;1558;42.700;23.360;2022-12-29T01:02:02;96289.91;;;4.59;100.00
3096;BME280;1558;42.700;23.360;2022-12-29T01:04:30;96283.25;;;4.51;100.00
3096;BME280;1558;42.700;23.360;2022-12-29T01:06:58;96287.78;;;4.56;100.00
3096;BME280;1558;42.700;23.360;2022-12-29T01:09:26;96286.44;;;4.63;100.00
3096;BME280;1558;42.700;23.360;2022-12-29T01:12:13;96286.44;;;4.58;100.00
3096;BME280;1558;42.700;23.360;2022-12-29T01:14:41;96274.44;;;4.46;100.00
3096;BME280;1558;42.700;23.360;2022-12-29T01:17:09;96275.75;;;4.43;100.00
3096;BME280;1558;42.700;23.360;2022-12-29T01:19:37;96246.13;;;4.20;100.00
3096;BME280;1558;42.700;23.360;2022-12-29T01:22:04;96273.91;;;4.39;100.00
3096;BME280;1558;42.700;23.360;2022-12-29T01:24:32;96272.28;;;4.38;100.00
3096;BME280;1558;42.700;23.360;2022-12-29T01:27:00;96281.63;;;4.35;100.00
3096;BME280;1558;42.700;23.360;2022-12-29T01:29:29;96269.63;;;4.43;100.00
3096;BME280;1558;42.700;23.360;2022-12-29T01:31:57;96275.50;;;4.45;100.00
3096;BME280;1558;42.700;23.360;2022-12-29T01:34:25;96256.53;;;4.36;100.00
3096;BME280;1558;42.700;23.360;2022-12-29T01:36:53;96265.59;;;4.35;100.00
3096;BME280;1558;42.700;23.360;2022-12-29T01:39:21;96257.59;;;4.35;100.00
3096;BME280;1558;42.700;23.360;2022-12-29T01:41:51;96254.41;;;4.33;100.00
3096;BME280;1558;42.700;23.360;2022-12-29T01:44:41;96256.81;;;4.30;100.00
3096;BME280;1558;42.700;23.360;2022-12-29T01:47:21;96236.25;;;4.10;100.00
3096;BME280;1558;42.700;23.360;2022-12-29T01:49:52;96251.47;;;4.25;100.00
3096;BME280;1558;42.700;23.360;2022-12-29T01:52:22;96247.47;;;4.22;100.00
3096;BME280;1558;42.700;23.360;2022-12-29T01:54:53;96249.88;;;4.24;100.00
3096;BME280;1558;42.700;23.360;2022-12-29T01:57:25;96242.94;;;4.23;100.00
3096;BME280;1558;42.700;23.360;2022-12-29T02:00:00;96243.47;;;4.20;100.00
3096;BME280;1558;42.700;23.360;2022-12-29T02:02:30;96244.81;;;4.22;100.00
3096;BME280;1558;42.700;23.360;2022-12-29T02:05:04;96233.59;;;4.20;100.00
3096;BME280;1558;42.700;23.360;2022-12-29T02:07:33;96230.66;;;4.22;100.00
3096;BME280;1558;42.700;23.360;2022-12-29T02:10:02;96227.16;;;4.16;100.00
3096;BME280;1558;42.700;23.360;2022-12-29T02:12:30;96235.19;;;4.21;100.00
3096;BME280;1558;42.700;23.360;2022-12-29T02:15:00;96242.94;;;4.23;100.00
3096;BME280;1558;42.700;23.360;2022-12-29T02:17:50;96240.81;;;4.25;100.00
3096;BME280;1558;42.700;23.360;2022-12-29T02:23:48;96236.25;;;4.20;100.00
3096;BME280;1558;42.700;23.360;2022-12-29T02:26:33;96231.47;;;4.22;100.00
3096;BME280;1558;42.700;23.360;2022-12-29T02:29:21;96229.59;;;4.23;100.00
3096;BME280;1558;42.700;23.360;2022-12-29T02:32:00;96237.59;;;4.13;100.00
3096;BME280;1558;42.700;23.360;2022-12-29T02:34:37;96228.25;;;4.10;100.00
3096;BME280;1558;42.700;23.360;2022-12-29T02:37:13;96235.22;;;4.11;100.00
3096;BME280;1558;42.700;23.360;2022-12-29T02:39:50;96234.94;;;4.07;100.00
3096;BME280;1558;42.700;23.360;2022-12-29T02:42:24;96236.78;;;4.02;100.00
3096;BME280;1558;42.700;23.360;2022-12-29T02:45:03;96230.41;;;4.03;100.00
3096;BME280;1558;42.700;23.360;2022-12-29T02:47:39;96227.72;;;4.03;100.00
3096;BME280;1558;42.700;23.360;2022-12-29T02:50:15;96226.91;;;4.13;100.00
3096;BME280;1558;42.700;23.360;2022-12-29T02:52:48;96228.78;;;4.07;100.00
3096;BME280;1558;42.700;23.360;2022-12-29T02:55:19;96224.78;;;4.09;100.00
3096;BME280;1558;42.700;23.360;2022-12-29T02:57:46;96219.19;;;4.11;100.00
3096;BME280;1558;42.700;23.360;2022-12-29T03:00:16;96219.16;;;4.21;100.00
3096;BME280;1558;42.700;23.360;2022-12-29T03:03:04;96225.03;;;4.23;100.00
3096;BME280;1558;42.700;23.360;2022-12-29T03:05:57;96223.44;;;4.27;100.00
3096;BME280;1558;42.700;23.360;2022-12-29T03:08:34;96219.97;;;4.22;100.00
3096;BME280;1558;42.700;23.360;2022-12-29T03:11:09;96208.50;;;4.11;100.00
3096;BME280;1558;42.700;23.360;2022-12-29T03:14:02;96222.91;;;4.15;100.00
3096;BME280;1558;42.700;23.360;2022-12-29T03:16:55;96223.72;;;4.21;100.00
3096;BME280;1558;42.700;23.360;2022-12-29T03:19:28;96220.50;;;4.19;100.00
3096;BME280;1558;42.700;23.360;2022-12-29T03:22:01;96215.44;;;4.22;100.00
3096;BME280;1558;42.700;23.360;2022-12-29T03:24:51;96213.81;;;4.16;100.00
3096;BME280;1558;42.700;23.360;2022-12-29T03:27:23;96211.97;;;4.06;100.00
3096;BME280;1558;42.700;23.360;2022-12-29T03:29:56;96204.50;;;3.88;100.00
3096;BME280;1558;42.700;23.360;2022-12-29T03:32:28;96207.44;;;3.72;100.00
3096;BME280;1558;42.700;23.360;2022-12-29T03:34:59;96215.16;;;3.68;100.00
3096;BME280;1558;42.700;23.360;2022-12-29T03:37:31;96189.25;;;3.49;100.00
3096;BME280;1558;42.700;23.360;2022-12-29T03:40:00;96212.22;;;3.60;100.00
3096;BME280;1558;42.700;23.360;2022-12-29T03:42:31;96216.22;;;3.62;100.00
3096;BME280;1558;42.700;23.360;2022-12-29T03:45:00;96210.63;;;3.54;100.00
3096;BME280;1558;42.700;23.360;2022-12-29T03:47:28;96222.34;;;3.58;100.00
3096;BME280;1558;42.700;23.360;2022-12-29T03:49:56;96229.28;;;3.54;100.00
3096;BME280;1558;42.700;23.360;2022-12-29T03:52:25;96232.47;;;3.51;100.00
3096;BME280;1558;42.700;23.360;2022-12-29T03:54:53;96223.38;;;3.41;100.00
3096;BME280;1558;42.700;23.360;2022-12-29T03:57:21;96228.97;;;3.45;100.00
3096;BME280;1558;42.700;23.360;2022-12-29T03:59:49;96218.56;;;3.33;100.00
3096;BME280;1558;42.700;23.360;2022-12-29T04:02:16;96233.75;;;3.33;100.00
3096;BME280;1558;42.700;23.360;2022-12-29T04:04:45;96235.59;;;3.27;100.00
3096;BME280;1558;42.700;23.360;2022-12-29T04:07:12;96242.78;;;3.22;100.00
3096;BME280;1558;42.700;23.360;2022-12-29T04:09:42;96243.59;;;3.22;100.00
3096;BME280;1558;42.700;23.360;2022-12-29T04:12:10;96236.09;;;3.14;100.00
3096;BME280;1558;42.700;23.360;2022-12-29T04:14:37;96227.81;;;3.06;100.00
3096;BME280;1558;42.700;23.360;2022-12-29T04:17:05;96162.91;;;2.65;100.00
3096;BME280;1558;42.700;23.360;2022-12-29T04:19:33;96237.69;;;3.15;100.00
3096;BME280;1558;42.700;23.360;2022-12-29T04:22:01;96240.88;;;3.12;100.00
3096;BME280;1558;42.700;23.360;2022-12-29T04:24:29;96235.31;;;3.24;100.00
3096;BME280;1558;42.700;23.360;2022-12-29T04:26:58;96241.25;;;3.41;100.00
3096;BME280;1558;42.700;23.360;2022-12-29T04:29:26;96242.84;;;3.52;100.00
3096;BME280;1558;42.700;23.360;2022-12-29T04:31:54;96244.72;;;3.57;100.00
3096;BME280;1558;42.700;23.360;2022-12-29T04:34:22;96240.50;;;3.71;100.00
3096;BME280;1558;42.700;23.360;2022-12-29T04:36:50;96249.59;;;3.80;100.00
3096;BME280;1558;42.700;23.360;2022-12-29T04:39:18;96215.41;;;3.62;100.00
3096;BME280;1558;42.700;23.360;2022-12-29T04:41:45;96254.38;;;3.83;100.00
3096;BME280;1558;42.700;23.360;2022-12-29T04:44:15;96252.28;;;3.85;100.00
3096;BME280;1558;42.700;23.360;2022-12-29T04:46:43;96252.78;;;3.82;100.00
3096;BME280;1558;42.700;23.360;2022-12-29T04:49:11;96265.59;;;3.80;100.00
3096;BME280;1558;42.700;23.360;2022-12-29T04:51:39;96266.09;;;3.72;100.00
3096;BME280;1558;42.700;23.360;2022-12-29T04:54:08;96238.63;;;3.56;100.00
3096;BME280;1558;42.700;23.360;2022-12-29T04:56:35;96270.91;;;3.75;100.00
3096;BME280;1558;42.700;23.360;2022-12-29T04:59:03;96267.19;;;3.81;100.00
3096;BME280;1558;42.700;23.360;2022-12-29T05:01:33;96264.50;;;3.76;100.00
3096;BME280;1558;42.700;23.360;2022-12-29T05:04:01;96266.38;;;3.85;100.00
3096;BME280;1558;42.700;23.360;2022-12-29T05:06:29;96278.94;;;3.85;100.00
3096;BME280;1558;42.700;23.360;2022-12-29T05:08:57;96272.00;;;3.84;100.00
3096;BME280;1558;42.700;23.360;2022-12-29T05:11:24;96266.66;;;3.79;100.00
3096;BME280;1558;42.700;23.360;2022-12-29T05:13:52;96259.72;;;3.73;100.00
3096;BME280;1558;42.700;23.360;2022-12-29T05:16:20;96266.91;;;3.72;100.00
3096;BME280;1558;42.700;23.360;2022-12-29T05:18:50;96263.72;;;3.70;100.00
3096;BME280;1558;42.700;23.360;2022-12-29T05:21:18;96261.84;;;3.71;100.00
3096;BME280;1558;42.700;23.360;2022-12-29T05:23:46;96267.97;;;3.71;100.00
3096;BME280;1558;42.700;23.360;2022-12-29T05:26:14;96262.13;;;3.74;100.00
3096;BME280;1558;42.700;23.360;2022-12-29T05:28:42;96268.78;;;3.72;100.00
3096;BME280;1558;42.700;23.360;2022-12-29T05:31:09;96257.59;;;3.75;100.00
3096;BME280;1558;42.700;23.360;2022-12-29T05:33:37;96263.16;;;3.73;100.00
3096;BME280;1558;42.700;23.360;2022-12-29T05:36:08;96275.47;;;3.79;100.00
3096;BME280;1558;42.700;23.360;2022-12-29T05:38:37;96269.84;;;3.76;100.00
3096;BME280;1558;42.700;23.360;2022-12-29T05:41:05;96266.63;;;3.74;100.00
3096;BME280;1558;42.700;23.360;2022-12-29T05:43:33;96262.91;;;3.75;100.00
3096;BME280;1558;42.700;23.360;2022-12-29T05:46:01;96274.91;;;3.72;100.00
3096;BME280;1558;42.700;23.360;2022-12-29T05:48:30;96273.63;;;3.85;100.00
3096;BME280;1558;42.700;23.360;2022-12-29T05:51:03;96233.03;;;3.63;100.00
3096;BME280;1558;42.700;23.360;2022-12-29T05:53:33;96265.59;;;3.80;100.00
3096;BME280;1558;42.700;23.360;2022-12-29T05:56:01;96275.72;;;3.83;100.00
3096;BME280;1558;42.700;23.360;2022-12-29T05:58:29;96286.41;;;3.83;100.00
3096;BME280;1558;42.700;23.360;2022-12-29T06:00:58;96283.72;;;3.88;100.00
3096;BME280;1558;42.700;23.360;2022-12-29T06:03:26;96293.88;;;3.86;100.00
3096;BME280;1558;42.700;23.360;2022-12-29T06:05:55;96294.41;;;3.93;100.00
3096;BME280;1558;42.700;23.360;2022-12-29T06:08:23;96285.91;;;3.96;100.00
3096;BME280;1558;42.700;23.360;2022-12-29T06:10:52;96287.50;;;4.07;100.00
3096;BME280;1558;42.700;23.360;2022-12-29T06:13:20;96293.91;;;4.26;100.00
3096;BME280;1558;42.700;23.360;2022-12-29T06:15:48;96289.94;;;4.49;100.00
3096;BME280;1558;42.700;23.360;2022-12-29T06:18:16;96290.41;;;4.81;100.00
3096;BME280;1558;42.700;23.360;2022-12-29T06:20:46;96270.06;;;4.85;100.00
3096;BME280;1558;42.700;23.360;2022-12-29T06:23:15;96226.88;;;4.63;100.00
3096;BME280;1558;42.700;23.360;2022-12-29T06:25:43;96284.94;;;5.26;100.00
3096;BME280;1558;42.700;23.360;2022-12-29T06:28:12;96289.44;;;5.36;100.00
3096;BME280;1558;42.700;23.360;2022-12-29T06:30:43;96296.25;;;4.98;100.00
3096;BME280;1558;42.700;23.360;2022-12-29T06:33:12;96261.88;;;4.51;100.00
3096;BME280;1558;42.700;23.360;2022-12-29T06:35:40;96259.47;;;4.50;100.00
3096;BME280;1558;42.700;23.360;2022-12-29T06:38:09;96280.53;;;4.76;100.00
3096;BME280;1558;42.700;23.360;2022-12-29T06:40:37;96293.59;;;4.88;100.00
3096;BME280;1558;42.700;23.360;2022-12-29T06:43:05;96296.56;;;4.76;100.00
3096;BME280;1558;42.700;23.360;2022-12-29T06:45:34;96297.09;;;4.84;100.00
3096;BME280;1558;42.700;23.360;2022-12-29T06:48:02;96202.09;;;4.32;100.00
3096;BME280;1558;42.700;23.360;2022-12-29T06:50:30;96303.66;;;5.21;100.00
3096;BME280;1558;42.700;23.360;2022-12-29T06:52:58;96304.97;;;5.39;100.00
3096;BME280;1558;42.700;23.360;2022-12-29T06:55:26;96303.13;;;5.88;100.00
3096;BME280;1558;42.700;23.360;2022-12-29T06:57:55;96303.53;;;6.44;100.00
3096;BME280;1558;42.700;23.360;2022-12-29T07:00:23;96294.47;;;6.74;100.00
3096;BME280;1558;42.700;23.360;2022-12-29T07:02:54;96313.34;;;7.16;100.00
3096;BME280;1558;42.700;23.360;2022-12-29T07:05:22;96309.06;;;7.63;100.00
3096;BME280;1558;42.700;23.360;2022-12-29T07:07:51;96306.69;;;7.80;100.00
3096;BME280;1558;42.700;23.360;2022-12-29T07:10:19;96306.78;;;7.93;100.00
3096;BME280;1558;42.700;23.360;2022-12-29T07:12:47;96304.09;;;7.75;100.00
3096;BME280;1558;42.700;23.360;2022-12-29T07:15:15;96298.34;;;7.81;100.00
3096;BME280;1558;42.700;23.360;2022-12-29T07:17:43;96291.38;;;7.80;100.00
3096;BME280;1558;42.700;23.360;2022-12-29T07:20:12;96298.13;;;7.96;100.00
3096;BME280;1558;42.700;23.360;2022-12-29T07:22:40;96291.81;;;7.87;100.00
3096;BME280;1558;42.700;23.360;2022-12-29T07:25:09;96292.03;;;7.72;100.00
3096;BME280;1558;42.700;23.360;2022-12-29T07:27:37;96296.41;;;8.24;100.00
3096;BME280;1558;42.700;23.360;2022-12-29T07:30:05;96286.94;;;8.77;100.00
3096;BME280;1558;42.700;23.360;2022-12-29T07:32:34;96285.91;;;9.06;100.00
3096;BME280;1558;42.700;23.360;2022-12-29T07:35:02;96281.97;;;9.58;97.99
3096;BME280;1558;42.700;23.360;2022-12-29T07:37:31;96262.59;;;9.69;93.84
3096;BME280;1558;42.700;23.360;2022-12-29T07:40:00;96288.06;;;9.99;89.56
3096;BME280;1558;42.700;23.360;2022-12-29T07:42:30;96295.41;;;9.44;88.28
3096;BME280;1558;42.700;23.360;2022-12-29T07:44:58;96304.41;;;9.53;88.95
3096;BME280;1558;42.700;23.360;2022-12-29T07:47:26;96303.88;;;9.24;89.62
3096;BME280;1558;42.700;23.360;2022-12-29T07:49:54;96297.50;;;9.47;89.91
3096;BME280;1558;42.700;23.360;2022-12-29T07:52:22;96293.09;;;9.78;89.38
3096;BME280;1558;42.700;23.360;2022-12-29T07:54:52;96308.84;;;10.12;87.46
3096;BME280;1558;42.700;23.360;2022-12-29T07:57:22;96299.25;;;10.19;86.06
3096;BME280;1558;42.700;23.360;2022-12-29T07:59:57;96306.66;;;10.72;86.17
3096;BME280;1558;42.700;23.360;2022-12-29T08:02:25;96302.69;;;10.56;82.12
3096;BME280;1558;42.700;23.360;2022-12-29T08:04:53;96304.13;;;10.17;81.81
3096;BME280;1558;42.700;23.360;2022-12-29T08:07:21;96318.53;;;9.99;83.63
3096;BME280;1558;42.700;23.360;2022-12-29T08:09:49;96295.22;;;10.75;83.99
3096;BME280;1558;42.700;23.360;2022-12-29T08:12:18;96266.75;;;10.91;80.80
3096;BME280;1558;42.700;23.360;2022-12-29T08:14:46;96311.75;;;11.26;80.01
3096;BME280;1558;42.700;23.360;2022-12-29T08:17:14;96305.34;;;11.22;78.20
3096;BME280;1558;42.700;23.360;2022-12-29T08:19:42;96307.63;;;10.76;77.55
3096;BME280;1558;42.700;23.360;2022-12-29T08:22:10;96301.38;;;10.67;79.96
3096;BME280;1558;42.700;23.360;2022-12-29T08:24:38;96304.72;;;11.25;79.60
3096;BME280;1558;42.700;23.360;2022-12-29T08:27:06;96311.22;;;11.55;77.64
3096;BME280;1558;42.700;23.360;2022-12-29T08:29:46;96288.66;;;11.20;77.39
3096;BME280;1558;42.700;23.360;2022-12-29T08:32:14;96243.63;;;10.46;77.16
3096;BME280;1558;42.700;23.360;2022-12-29T08:34:43;96302.97;;;10.46;79.32
3096;BME280;1558;42.700;23.360;2022-12-29T08:37:11;96301.84;;;10.47;81.00
3096;BME280;1558;42.700;23.360;2022-12-29T08:39:38;96298.44;;;11.38;79.71
3096;BME280;1558;42.700;23.360;2022-12-29T08:42:06;96296.75;;;11.20;77.31
3096;BME280;1558;42.700;23.360;2022-12-29T08:44:34;96298.31;;;11.83;77.39
3096;BME280;1558;42.700;23.360;2022-12-29T08:47:03;96300.59;;;12.15;75.38
3096;BME280;1558;42.700;23.360;2022-12-29T08:49:31;96300.25;;;11.91;74.70
3096;BME280;1558;42.700;23.360;2022-12-29T08:51:59;96297.97;;;11.76;73.09
3096;BME280;1558;42.700;23.360;2022-12-29T08:54:27;96288.69;;;11.60;74.56
3096;BME280;1558;42.700;23.360;2022-12-29T08:56:55;96294.59;;;11.31;74.84
3096;BME280;1558;42.700;23.360;2022-12-29T08:59:23;96274.88;;;11.30;76.61
3096;BME280;1558;42.700;23.360;2022-12-29T09:01:51;96286.19;;;11.72;74.76
3096;BME280;1558;42.700;23.360;2022-12-29T09:04:20;96286.88;;;12.03;75.18
3096;BME280;1558;42.700;23.360;2022-12-29T09:06:50;96283.53;;;11.89;74.01
3096;BME280;1558;42.700;23.360;2022-12-29T09:09:18;96265.13;;;11.12;74.85
3096;BME280;1558;42.700;23.360;2022-12-29T09:11:46;96280.22;;;12.09;75.14
3096;BME280;1558;42.700;23.360;2022-12-29T09:14:14;96244.59;;;12.07;72.82
3096;BME280;1558;42.700;23.360;2022-12-29T09:16:42;96271.81;;;12.45;74.30
3096;BME280;1558;42.700;23.360;2022-12-29T09:19:28;96263.66;;;12.70;72.30
3096;BME280;1558;42.700;23.360;2022-12-29T09:21:58;96262.41;;;12.42;71.65
3096;BME280;1558;42.700;23.360;2022-12-29T09:24:26;96265.13;;;12.42;72.53
3096;BME280;1558;42.700;23.360;2022-12-29T09:26:54;96268.94;;;12.67;71.65
3096;BME280;1558;42.700;23.360;2022-12-29T09:29:22;96269.41;;;12.60;72.35
3096;BME280;1558;42.700;23.360;2022-12-29T09:31:50;96265.88;;;12.85;71.93
3096;BME280;1558;42.700;23.360;2022-12-29T09:34:18;96242.97;;;12.66;71.96
3096;BME280;1558;42.700;23.360;2022-12-29T09:36:48;96263.84;;;12.57;71.46
3096;BME280;1558;42.700;23.360;2022-12-29T09:39:16;96233.13;;;12.44;72.83
3096;BME280;1558;42.700;23.360;2022-12-29T09:41:47;96249.81;;;12.80;72.31
3096;BME280;1558;42.700;23.360;2022-12-29T09:44:20;96251.41;;;12.73;71.56
3096;BME280;1558;42.700;23.360;2022-12-29T09:46:53;96247.28;;;12.67;72.34
3096;BME280;1558;42.700;23.360;2022-12-29T09:49:25;96252.41;;;13.23;71.05
3096;BME280;1558;42.700;23.360;2022-12-29T09:52:03;96205.59;;;12.42;70.12
3096;BME280;1558;42.700;23.360;2022-12-29T09:54:42;96242.78;;;12.88;71.35
3096;BME280;1558;42.700;23.360;2022-12-29T09:57:27;96239.09;;;12.93;71.87
3096;BME280;1558;42.700;23.360;2022-12-29T10:00:00;96218.72;;;12.86;69.62
3096;BME280;1558;42.700;23.360;2022-12-29T10:02:37;96235.94;;;12.90;71.61
3096;BME280;1558;42.700;23.360;2022-12-29T10:05:23;96232.66;;;13.23;70.13
3096;BME280;1558;42.700;23.360;2022-12-29T10:08:04;96218.31;;;12.42;71.26
3096;BME280;1558;42.700;23.360;2022-12-29T10:10:50;96221.69;;;12.30;73.64
3096;BME280;1558;42.700;23.360;2022-12-29T10:13:42;96220.69;;;12.43;73.15
3096;BME280;1558;42.700;23.360;2022-12-29T10:16:18;96208.94;;;12.22;72.69
3096;BME280;1558;42.700;23.360;2022-12-29T10:19:04;96194.16;;;11.85;74.60
3096;BME280;1558;42.700;23.360;2022-12-29T10:21:47;96211.59;;;12.73;73.87
3096;BME280;1558;42.700;23.360;2022-12-29T10:24:22;96215.66;;;13.14;72.72
3096;BME280;1558;42.700;23.360;2022-12-29T10:26:52;96211.41;;;13.33;69.90
3096;BME280;1558;42.700;23.360;2022-12-29T10:29:22;96161.78;;;12.66;70.32
3096;BME280;1558;42.700;23.360;2022-12-29T10:31:56;96199.88;;;12.27;71.78
3096;BME280;1558;42.700;23.360;2022-12-29T10:34:28;96201.94;;;12.47;73.27
3096;BME280;1558;42.700;23.360;2022-12-29T10:37:02;96191.16;;;12.84;72.87
3096;BME280;1558;42.700;23.360;2022-12-29T10:39:38;96180.47;;;13.34;71.96
3096;BME280;1558;42.700;23.360;2022-12-29T10:42:11;96195.38;;;13.78;69.38
3096;BME280;1558;42.700;23.360;2022-12-29T10:44:41;96178.31;;;13.78;68.13
3096;BME280;1558;42.700;23.360;2022-12-29T10:47:14;96172.03;;;12.89;68.51
3096;BME280;1558;42.700;23.360;2022-12-29T10:49:45;96179.88;;;12.82;71.38
3096;BME280;1558;42.700;23.360;2022-12-29T10:52:15;96183.06;;;12.84;70.65
3096;BME280;1558;42.700;23.360;2022-12-29T10:54:49;96177.13;;;13.00;71.16
3096;BME280;1558;42.700;23.360;2022-12-29T10:57:25;96179.06;;;12.90;70.75
3096;BME280;1558;42.700;23.360;2022-12-29T10:59:53;96165.09;;;13.18;70.60
3096;BME280;1558;42.700;23.360;2022-12-29T11:05:33;96159.59;;;13.35;69.93
3096;BME280;1558;42.700;23.360;2022-12-29T11:08:09;96166.09;;;13.05;69.87
3096;BME280;1558;42.700;23.360;2022-12-29T11:10:40;96156.19;;;12.71;69.54
3096;BME280;1558;42.700;23.360;2022-12-29T11:13:14;96159.19;;;12.78;70.68
3096;BME280;1558;42.700;23.360;2022-12-29T11:15:44;96125.94;;;12.69;70.33
3096;BME280;1558;42.700;23.360;2022-12-29T11:18:21;96163.25;;;13.10;69.45
3096;BME280;1558;42.700;23.360;2022-12-29T11:20:51;96134.69;;;13.12;69.69
3096;BME280;1558;42.700;23.360;2022-12-29T11:23:26;96134.09;;;13.36;68.13
3096;BME280;1558;42.700;23.360;2022-12-29T11:26:20;96145.84;;;13.11;68.36
3096;BME280;1558;42.700;23.360;2022-12-29T11:29:09;96135.84;;;13.61;67.60
3096;BME280;1558;42.700;23.360;2022-12-29T11:31:43;96140.63;;;13.35;67.16
3096;BME280;1558;42.700;23.360;2022-12-29T11:34:17;96140.47;;;13.31;67.96
3096;BME280;1558;42.700;23.360;2022-12-29T11:36:46;96139.13;;;13.46;69.02
3096;BME280;1558;42.700;23.360;2022-12-29T11:39:36;96139.53;;;13.56;67.91
3096;BME280;1558;42.700;23.360;2022-12-29T11:42:13;96131.06;;;13.00;68.46
3096;BME280;1558;42.700;23.360;2022-12-29T11:44:44;96134.66;;;13.50;68.83
3096;BME280;1558;42.700;23.360;2022-12-29T11:47:21;96134.66;;;13.91;67.69
3096;BME280;1558;42.700;23.360;2022-12-29T11:49:53;96129.69;;;13.73;67.70
3096;BME280;1558;42.700;23.360;2022-12-29T11:52:23;96131.94;;;14.12;66.92
3096;BME280;1558;42.700;23.360;2022-12-29T11:54:54;96129.22;;;13.71;66.67
3096;BME280;1558;42.700;23.360;2022-12-29T11:57:25;96082.16;;;13.75;67.27
3096;BME280;1558;42.700;23.360;2022-12-29T11:59:54;96131.38;;;14.39;67.79
3096;BME280;1558;42.700;23.360;2022-12-29T12:02:34;96134.47;;;14.50;67.32
3096;BME280;1558;42.700;23.360;2022-12-29T12:05:14;96116.47;;;14.24;66.94
3096;BME280;1558;42.700;23.360;2022-12-29T12:07:45;96114.16;;;14.02;67.38
3096;BME280;1558;42.700;23.360;2022-12-29T12:10:19;96097.56;;;13.83;67.48
3096;BME280;1558;42.700;23.360;2022-12-29T12:12:58;96093.97;;;13.29;67.73
3096;BME280;1558;42.700;23.360;2022-12-29T12:15:34;96120.78;;;13.22;69.43
3096;BME280;1558;42.700;23.360;2022-12-29T12:18:16;96115.69;;;12.83;70.91
3096;BME280;1558;42.700;23.360;2022-12-29T12:20:47;96110.94;;;12.80;71.11
3096;BME280;1558;42.700;23.360;2022-12-29T12:23:28;96115.44;;;12.67;71.86
3096;BME280;1558;42.700;23.360;2022-12-29T12:26:02;96114.97;;;12.65;72.64
3096;BME280;1558;42.700;23.360;2022-12-29T12:28:39;96098.88;;;12.69;73.44
3096;BME280;1558;42.700;23.360;2022-12-29T12:31:18;96105.22;;;12.73;73.54
3096;BME280;1558;42.700;23.360;2022-12-29T12:33:57;96107.28;;;12.12;73.67
3096;BME280;1558;42.700;23.360;2022-12-29T12:36:42;96107.78;;;12.14;76.17
3096;BME280;1558;42.700;23.360;2022-12-29T12:39:22;96099.69;;;12.06;76.63
3096;BME280;1558;42.700;23.360;2022-12-29T12:42:04;96101.69;;;12.35;77.55
3096;BME280;1558;42.700;23.360;2022-12-29T12:44:47;96103.84;;;12.58;75.93
3096;BME280;1558;42.700;23.360;2022-12-29T12:47:36;96099.47;;;12.28;75.55
3096;BME280;1558;42.700;23.360;2022-12-29T12:50:15;96093.19;;;12.53;75.43
3096;BME280;1558;42.700;23.360;2022-12-29T12:53:09;96099.06;;;12.55;75.23
3096;BME280;1558;42.700;23.360;2022-12-29T12:55:56;96092.91;;;12.46;74.88
3096;BME280;1558;42.700;23.360;2022-12-29T12:58:36;96095.72;;;12.58;74.62
3096;BME280;1558;42.700;23.360;2022-12-29T13:01:15;96101.75;;;12.64;74.98
3096;BME280;1558;42.700;23.360;2022-12-29T13:04:02;96088.97;;;12.35;74.41
3096;BME280;1558;42.700;23.360;2022-12-29T13:06:41;96090.44;;;12.15;75.52
3096;BME280;1558;42.700;23.360;2022-12-29T13:09:29;96098.25;;;12.00;77.24
3096;BME280;1558;42.700;23.360;2022-12-29T13:12:08;96104.16;;;12.02;78.30
3096;BME280;1558;42.700;23.360;2022-12-29T13:14:54;96103.59;;;12.34;78.21
3096;BME280;1558;42.700;23.360;2022-12-29T13:17:30;96092.44;;;12.44;77.22
3096;BME280;1558;42.700;23.360;2022-12-29T13:20:17;96101.13;;;12.67;77.21
3096;BME280;1558;42.700;23.360;2022-12-29T13:22:53;96104.31;;;12.60;76.27
3096;BME280;1558;42.700;23.360;2022-12-29T13:25:32;96024.59;;;12.03;76.18
3096;BME280;1558;42.700;23.360;2022-12-29T13:28:06;96097.16;;;12.64;76.69
3096;BME280;1558;42.700;23.360;2022-12-29T13:30:42;96107.13;;;12.81;76.70
3096;BME280;1558;42.700;23.360;2022-12-29T13:33:22;96062.44;;;12.66;75.75
3096;BME280;1558;42.700;23.360;2022-12-29T13:35:58;96097.63;;;12.96;75.44
3096;BME280;1558;42.700;23.360;2022-12-29T13:38:33;96100.16;;;13.01;74.99
3096;BME280;1558;42.700;23.360;2022-12-29T13:41:06;95980.69;;;12.14;75.26
3096;BME280;1558;42.700;23.360;2022-12-29T13:43:38;96104.94;;;12.66;75.29
3096;BME280;1558;42.700;23.360;2022-12-29T13:46:11;95968.56;;;11.48;75.93
3096;BME280;1558;42.700;23.360;2022-12-29T13:48:46;96100.44;;;12.15;77.33